Time;durP1;ratioP1;P1;durP2;ratioP2;P2;SDS_P1;SDS_P2;PMS_P1;PMS_P2;Temp;Humidity;BMP_temperature;BMP_pressure;BME280_temperature;BME280_humidity;BME280_pressure;Samples;Min_cycle;Max_cycle;Signal;HPM_P1;HPM_P2
2022/05/23 00:01:55;;;;;;;3.53;2.00;;;;;;;15.69;71.86;93256.84;5001103;28;20580;-72
2022/05/23 00:04:39;;;;;;;3.13;1.77;;;;;;;15.55;72.08;93247.81;5003533;28;20215;-72
2022/05/23 00:07:29;;;;;;;2.67;1.90;;;;;;;15.41;74.01;93255.66;4991118;28;20204;-72
2022/05/23 00:10:15;;;;;;;4.90;1.50;;;;;;;15.31;74.76;93244.63;4994497;28;20891;-72
2022/05/23 00:12:59;;;;;;;5.63;1.97;;;;;;;15.19;74.39;93240.56;4992807;28;20254;-72
2022/05/23 00:15:43;;;;;;;2.73;1.97;;;;;;;15.13;75.08;93240.31;4994732;28;20283;-72
2022/05/23 00:18:27;;;;;;;2.73;1.93;;;;;;;15.07;75.94;93234.41;4999315;28;20223;-71
2022/05/23 00:21:11;;;;;;;2.10;1.70;;;;;;;14.95;76.10;93232.50;4990365;28;20274;-72
2022/05/23 00:23:56;;;;;;;5.93;2.10;;;;;;;14.83;76.54;93234.78;5012543;28;20719;-72
2022/05/23 00:26:42;;;;;;;2.60;1.77;;;;;;;14.75;76.96;93228.09;4987977;28;20203;-72
2022/05/23 00:29:26;;;;;;;4.60;2.20;;;;;;;14.65;77.08;93233.97;5010265;28;20205;-72
2022/05/23 00:35:19;;;;;;;5.07;3.53;;;;;;;14.70;79.90;93218.69;4981308;28;20207;-72
2022/05/23 00:38:06;;;;;;;6.53;4.13;;;;;;;14.56;77.87;93220.91;5012583;28;20206;-72
2022/05/23 00:44:06;;;;;;;2.40;2.20;;;;;;;14.52;79.68;93212.25;5006235;28;20325;-72
2022/05/23 00:46:56;;;;;;;2.13;1.73;;;;;;;14.51;80.57;93199.50;5001568;28;20187;-72
2022/05/23 00:49:41;;;;;;;5.10;2.00;;;;;;;14.60;79.76;93204.16;5005824;28;20275;-72
2022/05/23 00:52:37;;;;;;;1.77;1.50;;;;;;;14.74;78.51;93210.44;4980066;28;20231;-72
2022/05/23 00:55:36;;;;;;;3.07;2.07;;;;;;;14.83;78.37;93209.41;4995107;28;20282;-72
2022/05/23 00:58:31;;;;;;;2.50;1.70;;;;;;;14.89;78.15;93201.22;5006327;28;20302;-72
2022/05/23 01:01:20;;;;;;;5.27;1.97;;;;;;;14.95;77.04;93204.28;5011487;28;20203;-72
2022/05/23 01:04:07;;;;;;;3.57;1.80;;;;;;;15.03;76.93;93203.19;5010689;28;20214;-72
2022/05/23 01:06:51;;;;;;;4.97;2.17;;;;;;;15.10;76.88;93202.09;5012675;28;20218;-72
2022/05/23 01:09:36;;;;;;;1.93;1.70;;;;;;;15.23;75.32;93192.78;5040272;28;20283;-71
2022/05/23 01:12:21;;;;;;;3.33;1.87;;;;;;;15.31;75.55;93176.91;5017102;28;20293;-72
2022/05/23 01:15:24;;;;;;;1.57;1.40;;;;;;;15.48;74.01;93167.03;5027235;28;20286;-72
2022/05/23 01:18:08;;;;;;;2.80;1.80;;;;;;;15.46;74.37;93180.31;5020258;28;20194;-71
2022/05/23 01:20:57;;;;;;;5.77;1.60;;;;;;;15.57;74.74;93171.63;4999208;28;20288;-72
2022/05/23 01:23:51;;;;;;;3.97;1.53;;;;;;;15.65;73.53;93168.41;5029696;28;20242;-72
2022/05/23 01:26:41;;;;;;;2.37;1.77;;;;;;;15.60;74.73;93164.72;5019210;28;20595;-72
2022/05/23 01:29:28;;;;;;;7.17;1.90;;;;;;;15.67;73.86;93166.41;5002031;28;20668;-72
2022/05/23 01:32:17;;;;;;;4.87;1.50;;;;;;;15.60;74.11;93173.19;5013389;28;20229;-72
2022/05/23 01:35:09;;;;;;;4.40;2.03;;;;;;;15.68;74.09;93179.16;5009703;28;20687;-72
2022/05/23 01:37:54;;;;;;;3.33;1.73;;;;;;;15.68;74.32;93190.44;5009707;28;20238;-72
2022/05/23 01:40:54;;;;;;;1.77;1.33;;;;;;;15.82;72.84;93186.75;5035538;28;20211;-72
2022/05/23 01:43:40;;;;;;;4.80;1.50;;;;;;;15.91;72.21;93202.66;5014425;28;20616;-71
2022/05/23 01:46:44;;;;;;;3.77;1.73;;;;;;;15.97;72.87;93202.91;5021062;28;20204;-72
2022/05/23 01:49:44;;;;;;;4.57;2.17;;;;;;;16.01;75.49;93208.69;4995384;28;20199;-71
2022/05/23 01:52:44;;;;;;;8.77;2.00;;;;;;;16.14;75.22;93196.50;5015259;28;20283;-73
2022/05/23 01:55:37;;;;;;;3.40;1.83;;;;;;;16.16;75.23;93197.31;5021303;28;20306;-71
2022/05/23 02:01:45;;;;;;;3.37;1.83;;;;;;;16.09;75.22;93197.72;5023165;28;20226;-72
2022/05/23 02:04:36;;;;;;;2.70;1.70;;;;;;;16.07;75.60;93201.19;5006103;28;20214;-72
2022/05/23 02:07:21;;;;;;;2.90;1.73;;;;;;;16.06;75.75;93194.06;5009384;28;20694;-72
2022/05/23 02:10:08;;;;;;;4.03;1.90;;;;;;;16.01;75.94;93197.41;5000684;28;20201;-72
2022/05/23 02:12:59;;;;;;;3.47;1.93;;;;;;;15.94;76.65;93187.94;5018261;28;20210;-72
2022/05/23 02:15:44;;;;;;;4.03;1.97;;;;;;;15.92;76.76;93192.81;5016704;28;20206;-72
2022/05/23 02:18:31;;;;;;;2.03;1.83;;;;;;;15.92;77.34;93190.72;5038454;28;20240;-72
2022/05/23 02:21:17;;;;;;;2.17;1.70;;;;;;;15.97;77.02;93185.94;5038433;28;20230;-72
2022/05/23 02:24:05;;;;;;;2.13;1.83;;;;;;;15.83;80.29;93176.91;5031886;28;20228;-72
2022/05/23 02:26:49;;;;;;;5.70;2.20;;;;;;;15.86;78.09;93175.63;5011839;28;20190;-71
2022/05/23 02:29:43;;;;;;;2.90;2.20;;;;;;;15.82;78.65;93172.63;5014294;28;20343;-72
2022/05/23 02:32:27;;;;;;;6.03;2.30;;;;;;;15.78;79.33;93162.63;5015081;28;20233;-72
2022/05/23 02:35:17;;;;;;;6.67;2.20;;;;;;;15.80;79.56;93158.44;5003402;28;20230;-73
2022/05/23 02:38:01;;;;;;;4.97;2.10;;;;;;;15.76;79.78;93151.22;5012754;28;20245;-72
2022/05/23 02:40:46;;;;;;;4.17;2.20;;;;;;;15.70;82.10;93158.75;5011934;28;20218;-73
2022/05/23 02:43:30;;;;;;;5.10;2.07;;;;;;;15.63;80.75;93140.81;5010998;28;20260;-72
2022/05/23 02:46:16;;;;;;;3.73;2.07;;;;;;;15.55;81.06;93143.34;5021264;28;20201;-73
2022/05/23 02:49:06;;;;;;;2.27;2.03;;;;;;;15.48;81.36;93144.44;5009487;28;20228;-72
2022/05/23 02:51:50;;;;;;;2.17;1.97;;;;;;;15.39;81.64;93153.94;5000567;28;20209;-73
2022/05/23 02:54:35;;;;;;;5.23;2.30;;;;;;;15.33;82.55;93150.84;5014871;28;20201;-73
2022/05/23 02:57:21;;;;;;;5.47;2.57;;;;;;;15.23;82.65;93141.97;5026720;28;20641;-72
2022/05/23 03:00:07;;;;;;;3.53;2.10;;;;;;;15.15;82.64;93138.81;5041712;28;20193;-72
2022/05/23 03:03:03;;;;;;;2.27;1.87;;;;;;;15.05;82.81;93133.50;5008519;28;20617;-72
2022/05/23 03:06:08;;;;;;;4.80;2.30;;;;;;;14.97;83.34;93128.22;5009026;28;20190;-73
2022/05/23 03:08:52;;;;;;;2.60;2.40;;;;;;;14.84;84.14;93120.63;4993666;28;20247;-72
2022/05/23 03:11:36;;;;;;;6.30;2.97;;;;;;;14.76;84.97;93108.97;5003266;28;20207;-73
2022/05/23 03:14:20;;;;;;;6.47;2.57;;;;;;;14.73;85.86;93096.19;4997810;28;20207;-72
2022/05/23 03:17:08;;;;;;;3.67;2.30;;;;;;;14.77;85.02;93113.25;4994268;28;20230;-72
2022/05/23 03:19:55;;;;;;;2.93;2.23;;;;;;;14.82;84.70;93103.59;4998052;28;20250;-72
2022/05/23 03:28:50;;;;;;;3.33;2.10;;;;;;;15.08;84.26;93103.25;4989114;28;20565;-73
2022/05/23 03:31:34;;;;;;;4.10;2.47;;;;;;;15.14;84.63;93109.16;4991204;28;20204;-73
2022/05/23 03:34:19;;;;;;;2.63;2.00;;;;;;;15.23;83.83;93103.19;4984949;28;20291;-73
2022/05/23 03:37:05;;;;;;;3.40;2.20;;;;;;;15.26;84.06;93101.91;4996670;28;20718;-72
2022/05/23 03:39:49;;;;;;;7.57;2.50;;;;;;;15.32;83.36;93102.16;5006209;28;20216;-72
2022/05/23 03:42:35;;;;;;;2.50;2.03;;;;;;;15.41;81.80;93106.03;4997465;28;20202;-73
2022/05/23 03:45:19;;;;;;;2.40;2.20;;;;;;;15.43;81.83;93097.63;4986948;28;20202;-73
2022/05/23 03:48:06;;;;;;;4.10;2.63;;;;;;;15.41;81.91;93097.56;4991536;28;20262;-73
2022/05/23 03:50:51;;;;;;;2.30;1.90;;;;;;;15.39;81.71;93089.00;5002981;28;20667;-72
2022/05/23 03:53:36;;;;;;;7.97;2.30;;;;;;;15.36;81.54;93090.31;4988505;28;20227;-72
2022/05/23 03:56:23;;;;;;;8.33;2.47;;;;;;;15.29;82.15;93077.31;4994759;28;20298;-72
2022/05/23 03:59:12;;;;;;;3.83;2.03;;;;;;;15.28;82.56;93070.94;4992692;28;20207;-73
2022/05/23 04:02:14;;;;;;;3.27;2.40;;;;;;;15.27;83.00;93074.41;4987083;28;20249;-73
2022/05/23 04:04:59;;;;;;;3.47;2.57;;;;;;;15.31;83.59;93080.22;5021699;28;20189;-73
2022/05/23 04:08:11;;;;;;;3.60;2.53;;;;;;;15.23;84.02;93077.06;5001367;28;20276;-73
2022/05/23 04:11:02;;;;;;;2.57;2.00;;;;;;;15.34;83.50;93076.09;5011918;28;20202;-73
2022/05/23 04:13:47;;;;;;;4.17;2.10;;;;;;;15.38;83.54;93076.25;5016600;28;20272;-73
2022/05/23 04:16:32;;;;;;;6.53;2.83;;;;;;;15.48;83.15;93076.69;5017566;28;20723;-73
2022/05/23 04:19:16;;;;;;;5.07;2.63;;;;;;;15.50;83.67;93070.38;5018405;28;20206;-73
2022/05/23 04:22:14;;;;;;;3.83;2.20;;;;;;;15.54;83.68;93079.03;5008283;28;20210;-73
2022/05/23 04:25:08;;;;;;;4.10;2.63;;;;;;;15.73;84.30;93079.09;5011128;28;20326;-73
2022/05/23 04:27:52;;;;;;;5.27;2.40;;;;;;;15.76;83.90;93082.72;5018212;28;20196;-72
2022/05/23 04:30:38;;;;;;;4.37;2.93;;;;;;;15.93;84.34;93064.28;5025232;28;20850;-73
2022/05/23 04:36:26;;;;;;;5.80;2.57;;;;;;;16.33;81.89;93074.25;5007731;28;20229;-72
2022/05/23 04:39:10;;;;;;;4.73;2.27;;;;;;;16.48;80.32;93073.38;5029660;28;20702;-72
2022/05/23 04:41:55;;;;;;;6.53;2.37;;;;;;;16.56;80.87;93079.34;5014007;28;20210;-72
2022/05/23 04:44:41;;;;;;;7.87;2.77;;;;;;;16.73;79.44;93075.00;5021112;28;20564;-73
2022/05/23 04:50:33;;;;;;;3.57;1.90;;;;;;;16.90;78.87;93059.31;5012480;28;20237;-72
2022/05/23 04:53:22;;;;;;;4.33;2.20;;;;;;;17.01;78.05;93046.94;5011658;28;20209;-72
2022/05/23 04:56:29;;;;;;;3.40;2.10;;;;;;;17.17;77.57;93041.81;5016662;28;20253;-73
2022/05/23 04:59:21;;;;;;;5.10;2.00;;;;;;;17.27;77.60;93039.31;5014004;28;20205;-73
2022/05/23 05:02:05;;;;;;;2.97;2.30;;;;;;;17.45;76.84;93038.44;5023770;28;20253;-73
2022/05/23 05:04:49;;;;;;;3.60;2.40;;;;;;;17.62;76.19;93034.75;5006628;28;20227;-73
2022/05/23 05:07:34;;;;;;;6.33;2.20;;;;;;;17.67;76.46;93036.31;4985538;28;20684;-73
2022/05/23 05:10:20;;;;;;;3.20;2.37;;;;;;;17.93;75.81;93033.56;4993558;28;20280;-73
2022/05/23 05:13:05;;;;;;;3.63;2.37;;;;;;;18.07;74.86;93034.72;4997506;28;20714;-74
2022/05/23 05:15:50;;;;;;;3.57;2.00;;;;;;;18.13;76.25;93026.38;5009559;28;20238;-73
2022/05/23 05:18:45;;;;;;;3.10;1.90;;;;;;;18.53;73.73;93028.91;5009094;28;20203;-74
2022/05/23 05:21:54;;;;;;;3.63;1.80;;;;;;;18.79;72.54;93034.59;5002239;28;20215;-74
2022/05/23 05:24:57;;;;;;;3.37;2.07;;;;;;;18.97;72.83;93035.78;5005474;28;20203;-74
2022/05/23 05:27:52;;;;;;;2.40;2.00;;;;;;;19.20;71.24;93042.75;5018800;28;20196;-74
2022/05/23 05:30:41;;;;;;;6.13;1.93;;;;;;;19.17;71.56;93038.44;5009920;28;20210;-74
2022/05/23 05:33:38;;;;;;;4.13;2.00;;;;;;;19.11;71.84;93034.72;4998695;28;20683;-74
2022/05/23 05:36:31;;;;;;;4.60;1.93;;;;;;;19.46;68.60;93033.47;5022121;28;20756;-75
2022/05/23 05:39:20;;;;;;;3.03;2.20;;;;;;;19.57;68.04;93033.03;4999898;28;20222;-74
2022/05/23 05:42:09;;;;;;;4.47;1.93;;;;;;;19.75;66.93;93039.13;4999314;28;20236;-74
2022/05/23 05:45:12;;;;;;;3.67;2.10;;;;;;;19.95;66.76;93038.88;5006748;28;20218;-74
2022/05/23 05:47:58;;;;;;;3.37;1.73;;;;;;;20.27;65.07;93047.38;5003654;28;20191;-75
2022/05/23 05:50:44;;;;;;;5.30;2.00;;;;;;;20.47;64.73;93047.84;5004393;28;20621;-75
2022/05/23 05:53:33;;;;;;;4.13;2.00;;;;;;;20.40;65.92;93042.69;5002775;28;20199;-74
2022/05/23 05:56:21;;;;;;;4.83;2.07;;;;;;;20.41;64.54;93053.41;5006473;28;20227;-74
2022/05/23 05:59:06;;;;;;;3.33;2.30;;;;;;;20.51;64.76;93062.13;5007576;28;20203;-74
2022/05/23 06:01:55;;;;;;;4.80;2.37;;;;;;;20.67;62.99;93058.19;4988695;28;20716;-74
2022/05/23 06:04:42;;;;;;;4.50;2.43;;;;;;;20.85;62.16;93061.38;4994917;28;20222;-73
2022/05/23 06:14:08;;;;;;;3.47;2.03;;;;;;;21.17;59.75;93073.41;5007299;28;20628;-74
2022/05/23 06:16:56;;;;;;;7.93;1.70;;;;;;;21.43;59.11;93083.81;4995068;28;20289;-74
2022/05/23 06:19:53;;;;;;;3.73;2.33;;;;;;;21.78;58.47;93074.44;5005425;28;20245;-74
2022/05/23 06:22:39;;;;;;;8.27;2.30;;;;;;;21.77;57.46;93075.84;4992002;28;20274;-74
2022/05/23 06:25:28;;;;;;;2.57;1.87;;;;;;;21.91;57.90;93087.47;5000632;28;20210;-74
2022/05/23 06:28:17;;;;;;;7.70;1.90;;;;;;;22.05;57.06;93096.28;5001759;28;20643;-74
2022/05/23 06:31:02;;;;;;;3.60;1.67;;;;;;;22.08;56.07;93100.63;4993707;28;20297;-74
2022/05/23 06:33:52;;;;;;;6.93;2.20;;;;;;;21.82;56.80;93117.28;5022323;28;20975;-75
2022/05/23 06:36:42;;;;;;;5.90;1.92;;;;;;;21.67;57.32;93115.59;5004523;28;20250;-74
2022/05/23 06:39:26;;;;;;;3.17;1.70;;;;;;;21.28;63.31;93129.19;5010238;28;20278;-74
2022/05/23 06:42:30;;;;;;;4.97;2.40;;;;;;;20.96;64.08;93134.22;5016435;28;20195;-74
2022/05/23 06:45:33;;;;;;;4.80;2.47;;;;;;;21.25;63.06;93147.63;5005281;28;20646;-75
2022/05/23 06:48:36;;;;;;;3.23;2.10;;;;;;;20.80;62.91;93157.38;5016186;28;20317;-75
2022/05/23 06:51:26;;;;;;;3.33;2.23;;;;;;;20.91;60.25;93155.47;5009961;28;20202;-75
2022/05/23 06:54:10;;;;;;;5.10;2.10;;;;;;;20.74;61.53;93159.41;5008311;28;20691;-75
2022/05/23 06:57:00;;;;;;;4.00;2.03;;;;;;;21.51;58.05;93150.25;5000871;28;20242;-75
2022/05/23 06:59:46;;;;;;;4.27;2.10;;;;;;;21.66;57.56;93134.13;5018658;28;20195;-74
2022/05/23 07:02:30;;;;;;;7.40;2.63;;;;;;;22.25;55.95;93146.50;5009943;28;20258;-74
2022/05/23 07:14:44;;;;;;;4.18;2.20;;;;;;;22.61;54.31;93184.16;4995389;28;20230;-75
2022/05/23 07:17:28;;;;;;;4.28;2.03;;;;;;;22.18;54.80;93200.63;4990578;28;20681;-74
2022/05/23 07:20:28;;;;;;;4.20;2.30;;;;;;;21.60;57.93;93173.94;4992494;28;20306;-75
2022/05/23 07:23:44;;;;;;;4.03;2.27;;;;;;;20.76;66.20;93196.44;4977394;28;20210;-75
2022/05/23 07:26:45;;;;;;;3.87;2.30;;;;;;;20.91;67.56;93201.06;4986705;28;20775;-75
2022/05/23 07:29:32;;;;;;;4.13;2.40;;;;;;;20.87;66.40;93203.78;4997033;28;20730;-76
2022/05/23 07:32:20;;;;;;;3.77;2.27;;;;;;;21.14;67.09;93171.59;5009239;28;20210;-75
2022/05/23 07:35:06;;;;;;;5.67;2.80;;;;;;;20.99;66.75;93167.75;4984870;28;20215;-76
2022/05/23 07:37:50;;;;;;;4.20;2.40;;;;;;;21.29;64.92;93161.94;4977487;28;20258;-75
2022/05/23 07:40:38;;;;;;;2.87;2.20;;;;;;;21.49;63.35;93153.06;4976542;28;20534;-76
2022/05/23 07:43:28;;;;;;;4.13;2.27;;;;;;;21.22;66.53;93143.31;4991316;28;20199;-76
2022/05/23 07:46:17;;;;;;;5.60;2.80;;;;;;;21.45;69.73;93135.16;4994969;28;20243;-76
2022/05/23 07:49:05;;;;;;;5.40;2.53;;;;;;;20.80;74.18;93145.28;5005152;28;20255;-76
2022/05/23 07:51:50;;;;;;;3.17;2.50;;;;;;;20.89;74.77;93147.63;5014748;28;20254;-75
2022/05/23 08:00:58;;;;;;;5.13;2.70;;;;;;;20.91;68.53;93141.25;5010423;28;20252;-76
2022/05/23 08:03:46;;;;;;;5.23;2.30;;;;;;;21.26;66.74;93108.47;4999257;28;20261;-76
2022/05/23 08:06:40;;;;;;;6.00;2.67;;;;;;;21.98;67.87;93094.75;4993460;28;20564;-76
2022/05/23 08:09:26;;;;;;;4.30;2.97;;;;;;;22.15;64.23;93076.47;5012814;28;20310;-75
2022/05/23 08:12:19;;;;;;;5.07;3.03;;;;;;;22.87;61.60;93076.00;4994843;28;20258;-75
2022/05/23 08:15:04;;;;;;;9.65;3.95;;;;;;;23.77;56.65;93061.19;4992612;28;20281;-76
2022/05/23 08:17:51;;;;;;;4.28;2.55;;;;;;;23.22;56.61;93050.66;5010827;28;20225;-75
2022/05/23 08:20:48;;;;;;;6.18;2.58;;;;;;;24.29;54.84;93048.72;4993119;28;20283;-75
2022/05/23 08:23:34;;;;;;;8.10;2.80;;;;;;;24.04;55.02;93056.41;5021993;28;20230;-75
2022/05/23 08:26:33;;;;;;;9.82;2.53;;;;;;;24.10;54.39;93061.44;5000100;28;20226;-75
2022/05/23 08:29:17;;;;;;;6.05;2.22;;;;;;;24.68;51.65;93063.25;5007835;28;20251;-75
2022/05/23 08:32:14;;;;;;;11.40;2.50;;;;;;;25.54;50.04;93065.69;5019365;28;20203;-75
2022/05/23 08:35:28;;;;;;;3.33;2.70;;;;;;;25.04;51.24;93074.91;4994246;28;20255;-75
2022/05/23 08:38:18;;;;;;;4.45;2.63;;;;;;;26.63;45.66;93087.97;5026151;28;20273;-75
2022/05/23 08:41:15;;;;;;;4.40;2.28;;;;;;;25.86;47.17;93093.72;5020502;28;20254;-74
2022/05/23 08:44:36;;;;;;;7.30;2.80;;;;;;;26.37;45.71;93085.84;4992963;28;20203;-74
2022/05/23 08:47:33;;;;;;;5.95;3.10;;;;;;;25.97;45.81;93075.09;5007285;28;20671;-74
2022/05/23 08:50:41;;;;;;;9.95;2.85;;;;;;;26.84;45.46;93077.84;4989667;28;20605;-74
2022/05/23 08:53:33;;;;;;;6.55;2.70;;;;;;;27.85;44.09;93070.16;5004795;28;20246;-74
2022/05/23 08:56:58;;;;;;;6.72;2.40;;;;;;;28.35;42.42;93071.94;4998851;28;20338;-74
2022/05/23 08:59:52;;;;;;;5.13;2.47;;;;;;;28.40;40.94;93071.16;5004347;28;20215;-74
2022/05/23 09:02:40;;;;;;;5.88;2.47;;;;;;;27.78;43.03;93066.59;4996864;28;20222;-74
2022/05/23 09:05:44;;;;;;;6.07;2.78;;;;;;;28.11;41.30;93055.56;4996317;28;20230;-74
2022/05/23 09:08:35;;;;;;;4.03;2.70;;;;;;;29.00;39.76;93036.69;5011890;28;20218;-73
2022/05/23 09:11:37;;;;;;;5.28;2.40;;;;;;;28.78;41.06;93018.19;5003574;28;20298;-73
2022/05/23 09:14:21;;;;;;;8.00;2.63;;;;;;;29.15;40.84;93026.38;5009025;28;20215;-73
2022/05/23 09:17:12;;;;;;;7.00;2.50;;;;;;;28.72;40.88;93020.41;4986716;28;20259;-73
2022/05/23 09:20:12;;;;;;;9.73;3.00;;;;;;;28.46;42.36;93004.81;4991233;28;20339;-73
2022/05/23 09:22:59;;;;;;;8.57;3.00;;;;;;;29.22;39.42;93001.78;5004608;28;20257;-73
2022/05/23 09:25:43;;;;;;;6.35;2.60;;;;;;;28.63;40.62;92996.00;5002267;28;20231;-73
2022/05/23 09:28:40;;;;;;;6.50;2.50;;;;;;;28.83;41.26;92995.78;4977796;28;20199;-73
2022/05/23 09:31:36;;;;;;;5.30;2.53;;;;;;;29.89;37.39;93001.50;4994474;28;20207;-73
2022/05/23 09:34:28;;;;;;;8.02;2.72;;;;;;;29.13;40.64;92986.03;5004222;28;20347;-73
2022/05/23 09:37:35;;;;;;;6.93;2.50;;;;;;;28.80;41.46;92988.63;5005896;28;20261;-73
2022/05/23 09:40:29;;;;;;;6.38;2.85;;;;;;;28.32;41.58;92976.16;5002232;28;20211;-73
2022/05/23 09:49:31;;;;;;;7.10;3.20;;;;;;;29.39;40.48;92959.00;5004153;28;20206;-73
2022/05/23 09:52:21;;;;;;;6.38;2.92;;;;;;;29.39;40.61;92947.44;5007774;28;20261;-73
2022/05/23 09:55:10;;;;;;;9.82;2.60;;;;;;;29.85;39.27;92958.25;4989382;28;20214;-73
2022/05/23 09:57:58;;;;;;;6.95;2.70;;;;;;;29.52;39.59;92948.69;5003356;28;20254;-73
2022/05/23 10:01:02;;;;;;;6.32;3.15;;;;;;;29.78;40.04;92951.16;4963263;28;20255;-73
2022/05/23 10:03:49;;;;;;;7.38;2.63;;;;;;;29.56;40.14;92954.41;5010015;28;20601;-74
2022/05/23 10:06:42;;;;;;;10.52;2.85;;;;;;;30.85;36.95;92949.22;5023235;28;20738;-73
2022/05/23 10:09:33;;;;;;;6.47;2.88;;;;;;;28.63;40.85;92938.34;5028937;28;20641;-73
2022/05/23 10:12:40;;;;;;;7.55;3.10;;;;;;;30.88;36.72;92939.00;5006766;28;20265;-73
2022/05/23 10:15:28;;;;;;;6.60;3.08;;;;;;;30.12;38.64;92930.34;4991471;28;20218;-73
2022/05/23 10:18:34;;;;;;;7.30;2.97;;;;;;;29.69;39.45;92932.53;5009697;28;20622;-74
2022/05/23 10:21:20;;;;;;;5.93;2.97;;;;;;;30.94;36.53;92929.50;5029912;28;20702;-73
2022/05/23 10:24:08;;;;;;;7.85;2.85;;;;;;;31.95;36.10;92920.69;5020447;28;20230;-73
2022/05/23 10:27:00;;;;;;;7.88;2.85;;;;;;;31.15;37.92;92918.22;5039068;28;20222;-73
2022/05/23 10:30:00;;;;;;;9.48;3.40;;;;;;;31.74;35.99;92903.81;5016120;28;20261;-73
2022/05/23 10:32:48;;;;;;;9.45;3.05;;;;;;;33.03;33.24;92904.66;5014991;28;20198;-73
2022/05/23 10:35:38;;;;;;;5.97;2.65;;;;;;;33.62;32.24;92912.31;5024110;28;20246;-73
2022/05/23 10:45:03;;;;;;;7.90;2.55;;;;;;;32.60;34.32;92889.97;5030961;28;20278;-73
2022/05/23 10:48:13;;;;;;;11.30;3.25;;;;;;;34.26;32.51;92890.59;5003992;28;20314;-73
2022/05/23 10:51:29;;;;;;;7.18;2.97;;;;;;;34.76;29.90;92885.91;5001118;28;20268;-73
2022/05/23 10:54:32;;;;;;;7.53;2.90;;;;;;;35.22;29.54;92888.59;5026216;28;20206;-73
2022/05/23 10:57:28;;;;;;;11.07;3.00;;;;;;;35.72;28.19;92885.19;5004974;28;20222;-72
2022/05/23 11:00:17;;;;;;;5.68;2.78;;;;;;;35.06;29.79;92886.28;5018908;28;20237;-73
2022/05/23 11:03:01;;;;;;;6.55;2.70;;;;;;;36.15;29.05;92881.91;5025874;28;20583;-73
2022/05/23 11:05:45;;;;;;;10.50;2.70;;;;;;;35.71;28.73;92886.69;5003500;28;20643;-73
2022/05/23 11:09:04;;;;;;;6.28;2.47;;;;;;;36.11;28.20;92893.06;5007197;28;20334;-73
2022/05/23 11:12:03;;;;;;;6.95;2.72;;;;;;;36.66;27.58;92871.72;4911730;29;20246;-73
2022/05/23 11:15:03;;;;;;;10.75;2.60;;;;;;;37.84;25.01;92878.63;4982001;28;20202;-73
2022/05/23 11:17:56;;;;;;;7.90;2.35;;;;;;;38.56;26.69;92888.25;5010820;28;20269;-73
2022/05/23 11:20:41;;;;;;;7.70;2.80;;;;;;;37.76;26.17;92870.28;4975769;28;20233;-72
2022/05/23 11:23:33;;;;;;;6.30;2.47;;;;;;;37.49;26.82;92870.09;4986810;28;20207;-73
2022/05/23 11:26:37;;;;;;;14.55;3.10;;;;;;;36.30;28.49;92856.47;4995038;28;20215;-74
2022/05/23 11:35:42;;;;;;;5.72;2.30;;;;;;;38.96;25.37;92853.19;5006284;28;20210;-73
2022/05/23 11:38:29;;;;;;;7.85;2.95;;;;;;;39.88;24.48;92863.50;5011647;28;20214;-72
2022/05/23 11:41:41;;;;;;;9.00;2.63;;;;;;;41.84;20.36;92866.25;5011172;28;20611;-73
2022/05/23 11:44:48;;;;;;;8.98;2.88;;;;;;;40.28;22.69;92851.69;4996230;28;20258;-73
2022/05/23 11:47:47;;;;;;;7.25;2.70;;;;;;;38.65;25.37;92836.50;4986883;28;20257;-73
2022/05/23 11:50:47;;;;;;;7.80;2.80;;;;;;;38.68;24.64;92834.88;5010051;28;20234;-74
2022/05/23 11:53:34;;;;;;;6.97;2.80;;;;;;;40.80;21.97;92839.00;4997325;28;20198;-73
2022/05/23 11:56:45;;;;;;;9.82;2.90;;;;;;;41.08;22.13;92828.44;5002663;28;20322;-74
2022/05/23 11:59:29;;;;;;;8.27;3.03;;;;;;;40.54;22.91;92825.91;4997053;28;20245;-74
2022/05/23 12:02:14;;;;;;;12.98;3.00;;;;;;;41.78;20.99;92822.53;5013637;28;20266;-74
2022/05/23 12:04:59;;;;;;;11.45;3.03;;;;;;;41.18;20.86;92815.34;5004226;28;20203;-74
2022/05/23 12:07:44;;;;;;;9.20;2.88;;;;;;;41.66;20.64;92805.66;4993817;28;20250;-73
2022/05/23 12:10:58;;;;;;;8.50;2.85;;;;;;;41.57;21.08;92790.06;5007597;28;20617;-74
2022/05/23 12:13:48;;;;;;;6.10;2.90;;;;;;;41.08;21.25;92793.19;5002600;28;20635;-73
2022/05/23 12:16:32;;;;;;;9.13;3.30;;;;;;;41.39;21.28;92788.28;5004690;28;20703;-73
2022/05/23 12:19:30;;;;;;;10.15;2.78;;;;;;;40.27;22.17;92792.25;4998207;28;20297;-73
2022/05/23 12:22:23;;;;;;;7.97;3.35;;;;;;;40.88;21.84;92797.34;5000999;28;20570;-74
2022/05/23 12:25:08;;;;;;;8.27;3.22;;;;;;;41.87;20.71;92793.94;5003194;28;20715;-73
2022/05/23 12:27:53;;;;;;;12.00;2.70;;;;;;;40.50;21.55;92785.03;5010913;28;20230;-74
2022/05/23 12:30:58;;;;;;;6.50;2.47;;;;;;;38.59;23.87;92772.41;4997011;28;20207;-73
2022/05/23 12:33:48;;;;;;;9.52;2.90;;;;;;;41.52;21.21;92780.09;5007961;28;20214;-73
2022/05/23 12:36:36;;;;;;;10.52;2.88;;;;;;;39.28;21.84;92789.16;4994755;28;20327;-72
2022/05/23 12:39:50;;;;;;;6.40;3.10;;;;;;;40.39;21.46;92782.72;5006208;28;20206;-74
2022/05/23 12:43:08;;;;;;;7.70;2.70;;;;;;;41.76;20.85;92772.63;5022712;28;20202;-74
2022/05/23 12:46:04;;;;;;;6.78;2.92;;;;;;;41.89;20.62;92785.03;4983136;28;20578;-74
2022/05/23 12:48:55;;;;;;;7.68;2.60;;;;;;;43.78;18.76;92778.41;4997208;28;20333;-74
2022/05/23 12:52:01;;;;;;;12.82;2.80;;;;;;;40.26;20.85;92782.03;5011114;28;20222;-73
2022/05/23 12:55:07;;;;;;;11.13;3.00;;;;;;;41.38;21.32;92772.19;5010212;28;20206;-72
2022/05/23 12:58:29;;;;;;;8.98;3.35;;;;;;;41.33;20.18;92762.91;5007501;28;20199;-73
2022/05/23 13:01:18;;;;;;;9.27;2.78;;;;;;;41.15;21.44;92764.81;4992210;28;20633;-74
2022/05/23 13:04:08;;;;;;;6.18;2.45;;;;;;;40.06;21.93;92759.75;5005980;28;20632;-73
2022/05/23 13:07:12;;;;;;;14.02;3.17;;;;;;;40.60;21.10;92752.81;5006082;28;20235;-73
2022/05/23 13:10:04;;;;;;;8.90;2.83;;;;;;;40.60;20.82;92746.22;5010859;28;20715;-73
2022/05/23 13:13:02;;;;;;;8.68;3.22;;;;;;;42.81;18.48;92740.50;5007608;28;20234;-73
2022/05/23 13:15:46;;;;;;;8.93;3.33;;;;;;;41.05;20.57;92744.84;4964828;28;20730;-73
2022/05/23 13:24:51;;;;;;;11.20;2.85;;;;;;;41.47;19.47;92773.06;4980388;28;20249;-73
2022/05/23 13:27:48;;;;;;;9.48;3.25;;;;;;;43.57;17.81;92786.66;5010734;28;20238;-74
2022/05/23 13:30:36;;;;;;;10.27;3.55;;;;;;;42.15;18.23;92778.91;5003495;28;20214;-74
2022/05/23 13:33:24;;;;;;;11.65;3.28;;;;;;;41.07;19.35;92777.06;4997291;28;20202;-73
2022/05/23 13:36:09;;;;;;;11.73;3.28;;;;;;;38.46;22.19;92759.91;4993557;28;20231;-72
2022/05/23 13:39:05;;;;;;;12.10;3.28;;;;;;;37.82;21.90;92755.91;4993107;28;20227;-72
2022/05/23 13:41:49;;;;;;;14.07;3.38;;;;;;;36.46;23.56;92765.31;4982303;28;20262;-73
2022/05/23 13:44:35;;;;;;;9.98;2.97;;;;;;;35.06;25.55;92775.63;5002417;28;20211;-73
2022/05/23 13:47:27;;;;;;;9.60;3.65;;;;;;;34.68;25.79;92781.44;4979660;28;20222;-73
2022/05/23 13:50:20;;;;;;;11.20;3.70;;;;;;;34.34;26.27;92795.06;5002321;28;20243;-72
2022/05/23 13:53:10;;;;;;;9.93;3.78;;;;;;;32.60;28.14;92791.31;4997321;28;20281;-72
2022/05/23 13:55:57;;;;;;;12.93;3.35;;;;;;;32.21;28.95;92788.88;4997729;28;20194;-72
2022/05/23 13:58:50;;;;;;;11.48;3.75;;;;;;;31.84;30.19;92800.72;4999636;28;20249;-73
2022/05/23 14:01:49;;;;;;;8.70;3.28;;;;;;;30.93;31.76;92795.69;4989229;28;20195;-73
2022/05/23 14:04:37;;;;;;;12.52;3.97;;;;;;;30.51;32.34;92779.31;5007807;28;20258;-72
2022/05/23 14:07:26;;;;;;;12.23;3.75;;;;;;;30.23;34.28;92782.78;5002371;28;20219;-72
2022/05/23 14:10:22;;;;;;;17.02;3.42;;;;;;;29.47;39.73;92791.47;4992592;28;20196;-73
2022/05/23 14:13:09;;;;;;;14.15;4.05;;;;;;;29.02;44.13;92792.19;4998505;28;20203;-74
2022/05/23 14:15:55;;;;;;;12.13;4.15;;;;;;;28.25;56.65;92781.78;4990342;28;20207;-74
2022/05/23 14:18:40;;;;;;;10.75;4.30;;;;;;;27.01;61.18;92787.41;4985621;28;20288;-82
2022/05/23 14:21:36;;;;;;;15.32;4.43;;;;;;;25.49;73.42;92811.13;5003349;28;20199;-78
2022/05/23 14:24:29;;;;;;;7.22;3.97;;;;;;;24.73;100.00;92824.03;4996989;28;20345;-81
2022/05/23 14:27:19;;;;;;;7.93;3.83;;;;;;;23.73;95.23;92832.34;4992041;28;20278;-79
2022/05/23 14:30:10;;;;;;;13.90;4.60;;;;;;;23.36;95.61;92842.09;4997849;28;20223;-80
2022/05/23 14:33:00;;;;;;;16.50;5.47;;;;;;;22.85;94.56;92856.03;4986885;28;20219;-76
2022/05/23 14:35:51;;;;;;;15.37;6.37;;;;;;;21.96;100.00;92845.84;4994681;28;20194;-75